Time;durP1;ratioP1;P1;durP2;ratioP2;P2;SDS_P1;SDS_P2;PMS_P1;PMS_P2;Temp;Humidity;BMP_temperature;BMP_pressure;BME280_temperature;BME280_humidity;BME280_pressure;Samples;Min_cycle;Max_cycle;Signal;HPM_P1;HPM_P2
2023/02/17 00:00:10;;;;;;;22.27;16.62;;;22.60;91.60;;;;;;1795730;78;21633;-87
2023/02/17 00:02:41;;;;;;;21.60;16.45;;;22.50;90.90;;;;;;1793339;78;21131;-87
2023/02/17 00:05:15;;;;;;;22.50;15.85;;;22.50;91.10;;;;;;1780413;79;21155;-86
2023/02/17 00:07:46;;;;;;;22.52;17.20;;;22.50;88.90;;;;;;1795610;78;21193;-87
2023/02/17 00:10:18;;;;;;;25.25;18.10;;;22.50;88.00;;;;;;1796873;78;21143;-86
2023/02/17 00:13:36;;;;;;;24.70;17.70;;;22.40;88.70;;;;;;1795117;78;21672;-87
2023/02/17 00:16:13;;;;;;;21.57;17.77;;;22.50;88.90;;;;;;1785389;78;21241;-86
2023/02/17 00:18:44;;;;;;;20.17;15.85;;;22.50;89.40;;;;;;1794303;78;22165;-86
2023/02/17 00:21:17;;;;;;;20.68;16.20;;;22.50;90.60;;;;;;1779177;78;21594;-87
2023/02/17 00:23:49;;;;;;;21.87;16.97;;;22.60;91.20;;;;;;1792468;78;21189;-86
2023/02/17 00:26:20;;;;;;;23.32;16.23;;;22.60;89.10;;;;;;1786451;78;21182;-85
2023/02/17 00:28:51;;;;;;;23.15;16.82;;;22.60;89.00;;;;;;1792198;78;21756;-85
2023/02/17 00:31:23;;;;;;;21.65;15.60;;;22.70;89.50;;;;;;1795215;78;21595;-85
2023/02/17 00:33:58;;;;;;;23.18;16.37;;;22.80;90.00;;;;;;1834485;77;21145;-85
2023/02/17 00:36:29;;;;;;;23.50;16.90;;;22.80;90.10;;;;;;1831634;77;21207;-87
2023/02/17 00:39:00;;;;;;;21.25;16.55;;;22.70;90.80;;;;;;1810870;78;21701;-85
2023/02/17 00:41:31;;;;;;;26.70;16.93;;;22.90;91.30;;;;;;1852444;77;21478;-86
2023/02/17 00:44:02;;;;;;;20.02;16.65;;;22.90;91.70;;;;;;1829489;77;21175;-85
2023/02/17 00:46:33;;;;;;;24.50;18.37;;;22.90;90.90;;;;;;1830259;77;21920;-87
2023/02/17 00:49:04;;;;;;;29.55;18.02;;;22.80;90.70;;;;;;1829245;77;21230;-88
2023/02/17 00:51:35;;;;;;;24.30;17.48;;;22.80;90.70;;;;;;1810399;77;21190;-90
2023/02/17 00:54:07;;;;;;;30.25;18.00;;;22.80;91.00;;;;;;1830669;77;21628;-84
2023/02/17 00:56:38;;;;;;;25.82;18.02;;;22.90;88.90;;;;;;1830992;77;21141;-91
2023/02/17 00:59:09;;;;;;;31.35;18.87;;;22.80;86.70;;;;;;1824495;77;21612;-91
2023/02/17 01:01:40;;;;;;;27.02;18.75;;;22.90;85.50;;;;;;1833330;78;21171;-87
2023/02/17 01:04:11;;;;;;;20.77;16.90;;;22.90;85.20;;;;;;1827696;78;21170;-90
2023/02/17 01:06:42;;;;;;;26.25;17.80;;;22.90;85.30;;;;;;1784297;78;21220;-87
2023/02/17 01:09:16;;;;;;;26.50;18.67;;;23.00;85.20;;;;;;1824548;77;21674;-77
2023/02/17 01:11:47;;;;;;;26.25;19.05;;;23.10;85.00;;;;;;1826787;77;21466;-77
2023/02/17 01:17:09;;;;;;;30.40;19.35;;;23.20;84.50;;;;;;1770658;80;21191;-74
2023/02/17 01:19:41;;;;;;;23.60;17.98;;;23.10;84.40;;;;;;1738576;81;22224;-75
2023/02/17 01:22:12;;;;;;;24.90;18.32;;;23.20;83.90;;;;;;1774533;79;21206;-75
2023/02/17 01:24:44;;;;;;;26.33;18.75;;;23.10;75.60;;;;;;1705415;82;21405;-75
2023/02/17 01:27:18;;;;;;;26.45;18.10;;;23.10;75.90;;;;;;1787054;79;21285;-74
2023/02/17 01:30:09;;;;;;;24.43;19.02;;;23.20;75.50;;;;;;1839321;77;21129;-74
2023/02/17 01:32:40;;;;;;;24.18;18.37;;;23.30;75.20;;;;;;1858890;77;21642;-74
2023/02/17 01:35:13;;;;;;;26.48;17.73;;;23.30;74.70;;;;;;1847783;77;21423;-73
2023/02/17 01:37:48;;;;;;;23.15;17.10;;;23.30;74.50;;;;;;1838015;77;21275;-75
2023/02/17 01:40:21;;;;;;;21.93;16.52;;;23.30;74.30;;;;;;1841598;77;21977;-75
2023/02/17 01:42:52;;;;;;;23.40;16.90;;;23.40;74.70;;;;;;1834386;77;21220;-79
2023/02/17 01:45:31;;;;;;;21.95;15.95;;;23.40;74.40;;;;;;1833351;77;21724;-74
2023/02/17 01:48:08;;;;;;;22.75;18.25;;;23.50;74.10;;;;;;1790880;78;21282;-76
2023/02/17 01:50:42;;;;;;;23.87;16.65;;;23.50;73.90;;;;;;1791786;78;21218;-75
2023/02/17 01:53:18;;;;;;;22.82;17.27;;;23.60;73.90;;;;;;1790644;79;22021;-73
2023/02/17 01:55:56;;;;;;;22.85;16.55;;;23.60;73.40;;;;;;1788853;80;21695;-73
2023/02/17 01:58:38;;;;;;;22.73;16.90;;;23.60;73.40;;;;;;1790242;79;21162;-73
2023/02/17 02:01:14;;;;;;;22.58;17.48;;;23.60;73.80;;;;;;1789176;78;21117;-76
2023/02/17 02:03:48;;;;;;;27.37;17.82;;;23.60;73.90;;;;;;1790696;79;21154;-76
2023/02/17 02:06:22;;;;;;;22.73;17.40;;;23.70;73.30;;;;;;1789977;79;21244;-75
2023/02/17 02:09:08;;;;;;;22.50;16.70;;;23.60;73.30;;;;;;1794092;78;21403;-75
2023/02/17 02:11:40;;;;;;;22.90;16.97;;;23.70;73.10;;;;;;1778870;78;21166;-75
2023/02/17 02:14:12;;;;;;;19.15;16.35;;;23.70;72.90;;;;;;1793592;78;21292;-74
2023/02/17 02:17:06;;;;;;;19.35;15.75;;;23.60;73.00;;;;;;1792586;78;21173;-74
2023/02/17 02:19:59;;;;;;;22.95;17.35;;;23.60;73.20;;;;;;1791209;79;21207;-75
2023/02/17 02:22:44;;;;;;;25.08;17.85;;;23.60;73.30;;;;;;1791806;79;21503;-76
2023/02/17 02:25:42;;;;;;;23.77;18.52;;;23.60;73.50;;;;;;1774832;79;21889;-75
2023/02/17 02:28:27;;;;;;;24.50;18.87;;;23.70;73.30;;;;;;1792631;79;21349;-74
2023/02/17 02:31:26;;;;;;;24.70;18.27;;;23.70;73.20;;;;;;1834496;77;21106;-75
2023/02/17 02:34:00;;;;;;;24.12;17.45;;;23.70;73.20;;;;;;1790278;79;21601;-75
2023/02/17 02:36:40;;;;;;;26.35;18.80;;;23.90;72.70;;;;;;1832686;77;21145;-74
2023/02/17 02:39:20;;;;;;;25.65;17.35;;;23.90;72.90;;;;;;1853519;77;21566;-74
2023/02/17 02:41:56;;;;;;;26.12;18.37;;;24.00;72.80;;;;;;1787953;79;21564;-75
2023/02/17 02:44:28;;;;;;;22.13;18.07;;;24.00;72.40;;;;;;1796413;80;21240;-75
2023/02/17 02:47:02;;;;;;;28.32;18.37;;;24.00;72.40;;;;;;1786998;78;21168;-74
2023/02/17 02:49:35;;;;;;;25.23;18.67;;;24.10;72.40;;;;;;1803339;78;21128;-74
2023/02/17 02:52:21;;;;;;;26.07;18.55;;;24.20;72.20;;;;;;1797214;79;21815;-73
2023/02/17 02:55:10;;;;;;;28.80;19.27;;;24.20;72.00;;;;;;1832730;77;21130;-74
2023/02/17 02:57:54;;;;;;;27.42;18.42;;;24.30;72.10;;;;;;1797043;79;21137;-75
2023/02/17 03:00:42;;;;;;;27.30;19.07;;;24.30;71.90;;;;;;1823865;78;21330;-76
2023/02/17 03:03:41;;;;;;;32.38;20.08;;;24.40;71.90;;;;;;1826177;77;21158;-75
2023/02/17 03:06:30;;;;;;;26.62;19.02;;;24.50;71.80;;;;;;1782983;79;21646;-76
2023/02/17 03:09:06;;;;;;;23.75;18.52;;;24.60;71.20;;;;;;1840800;77;21174;-75
2023/02/17 03:11:38;;;;;;;26.50;18.77;;;24.60;71.00;;;;;;1792761;79;21229;-74
2023/02/17 03:14:12;;;;;;;26.20;19.12;;;24.70;71.00;;;;;;1838224;77;21677;-73
2023/02/17 03:16:47;;;;;;;29.42;20.68;;;24.70;70.90;;;;;;1829633;77;21876;-76
2023/02/17 03:19:19;;;;;;;24.18;19.23;;;24.80;69.70;;;;;;1829077;77;21157;-73
2023/02/17 03:21:53;;;;;;;25.17;18.90;;;24.90;69.80;;;;;;1787789;79;21253;-75
2023/02/17 03:24:24;;;;;;;28.25;19.60;;;25.00;69.90;;;;;;1825571;77;21580;-73
2023/02/17 03:26:55;;;;;;;26.15;19.55;;;25.00;69.40;;;;;;1792225;79;21955;-76
2023/02/17 03:29:27;;;;;;;27.48;19.27;;;25.00;69.00;;;;;;1830976;77;21923;-75
2023/02/17 03:31:59;;;;;;;26.62;19.12;;;25.10;69.20;;;;;;1804095;78;21633;-74
2023/02/17 03:34:30;;;;;;;26.33;19.42;;;25.10;68.90;;;;;;1757919;79;21901;-74
2023/02/17 03:37:20;;;;;;;24.15;18.42;;;25.20;68.80;;;;;;1798296;78;21501;-74
2023/02/17 03:39:42;;;;;;;26.68;19.32;;;25.30;68.80;;;;;;1779049;78;21138;-73
2023/02/17 03:42:11;;;;;;;27.98;18.95;;;25.30;68.80;;;;;;1828983;77;21251;-74
2023/02/17 03:44:59;;;;;;;25.68;18.45;;;25.40;68.30;;;;;;1798616;78;21138;-75
2023/02/17 03:51:02;;;;;;;22.65;17.80;;;25.40;67.60;;;;;;1802471;78;21187;-76
2023/02/17 03:53:33;;;;;;;22.98;17.17;;;25.50;67.80;;;;;;1801659;78;21214;-75
2023/02/17 03:56:04;;;;;;;22.93;17.62;;;25.50;67.50;;;;;;1829570;77;21204;-76
2023/02/17 03:58:36;;;;;;;23.38;16.95;;;25.50;67.40;;;;;;1845668;77;21177;-77
2023/02/17 04:01:09;;;;;;;26.17;17.98;;;25.60;67.20;;;;;;1841941;77;21199;-75
2023/02/17 04:03:41;;;;;;;27.22;18.52;;;25.60;67.60;;;;;;1847299;77;21874;-75
2023/02/17 04:06:13;;;;;;;24.45;18.02;;;25.70;67.50;;;;;;1818892;78;21166;-75
2023/02/17 04:08:44;;;;;;;20.65;16.32;;;25.80;66.90;;;;;;1781606;79;21612;-74
2023/02/17 04:11:15;;;;;;;24.77;18.48;;;25.80;66.50;;;;;;1798140;78;21354;-76
2023/02/17 04:13:46;;;;;;;23.18;17.95;;;25.90;66.50;;;;;;1803665;78;21150;-76
2023/02/17 04:16:17;;;;;;;21.97;17.02;;;26.00;66.50;;;;;;1781946;80;21289;-75
2023/02/17 04:18:48;;;;;;;21.35;15.88;;;26.00;66.10;;;;;;1802392;78;21160;-76
2023/02/17 04:21:20;;;;;;;21.60;15.72;;;26.10;66.40;;;;;;1788867;79;21141;-75
2023/02/17 04:23:53;;;;;;;23.07;16.30;;;26.10;65.90;;;;;;1825460;78;21185;-74
2023/02/17 04:26:24;;;;;;;19.95;15.78;;;26.10;66.00;;;;;;1811871;78;21217;-75
2023/02/17 04:28:55;;;;;;;22.67;15.95;;;26.00;65.80;;;;;;1815066;78;21148;-75
2023/02/17 04:31:26;;;;;;;20.35;15.83;;;26.00;65.90;;;;;;1772316;79;21283;-75
2023/02/17 04:33:58;;;;;;;21.20;15.40;;;26.00;66.50;;;;;;1780993;79;21255;-76
2023/02/17 04:36:29;;;;;;;23.32;16.82;;;26.00;66.50;;;;;;1756558;81;21222;-76
2023/02/17 04:39:00;;;;;;;24.30;15.98;;;26.00;66.50;;;;;;1758150;81;21696;-75
2023/02/17 04:41:31;;;;;;;21.80;15.55;;;26.10;66.50;;;;;;1774814;80;21201;-75
2023/02/17 04:44:02;;;;;;;21.45;16.25;;;26.20;66.00;;;;;;1758993;81;21208;-75
2023/02/17 04:46:34;;;;;;;22.98;16.93;;;26.30;65.90;;;;;;1761034;81;21213;-75
2023/02/17 04:49:05;;;;;;;23.22;16.85;;;26.30;65.80;;;;;;1760420;80;21291;-75
2023/02/17 04:51:38;;;;;;;21.17;15.50;;;26.40;65.30;;;;;;1756243;81;21206;-75
2023/02/17 04:54:09;;;;;;;19.15;15.53;;;26.50;64.80;;;;;;1758568;81;21322;-77
2023/02/17 04:56:41;;;;;;;25.32;17.32;;;26.50;64.80;;;;;;1777038;79;21633;-75
2023/02/17 04:59:19;;;;;;;20.55;15.70;;;26.50;64.70;;;;;;1775677;79;21657;-76
2023/02/17 05:01:52;;;;;;;19.90;14.85;;;26.60;64.60;;;;;;1778166;79;21206;-87
2023/02/17 05:04:26;;;;;;;20.45;15.53;;;26.60;64.30;;;;;;1777562;79;21213;-84
2023/02/17 05:06:59;;;;;;;18.32;13.83;;;26.60;64.80;;;;;;1777904;79;21255;-83
2023/02/17 05:09:34;;;;;;;20.17;15.70;;;26.60;64.70;;;;;;1774861;79;21256;-85
2023/02/17 05:12:14;;;;;;;20.70;15.43;;;26.60;64.30;;;;;;1781172;80;21176;-85
2023/02/17 05:14:43;;;;;;;23.02;16.23;;;26.60;65.00;;;;;;1777776;79;21509;-84
2023/02/17 05:17:15;;;;;;;22.35;15.45;;;26.60;64.90;;;;;;1792621;79;21557;-85
2023/02/17 05:19:46;;;;;;;21.68;14.95;;;26.70;64.80;;;;;;1774461;79;21262;-86
2023/02/17 05:22:17;;;;;;;19.70;15.35;;;26.70;64.40;;;;;;1758460;81;21173;-84
2023/02/17 05:24:48;;;;;;;22.07;15.43;;;26.70;64.30;;;;;;1760971;81;21271;-84
2023/02/17 05:27:19;;;;;;;21.25;14.83;;;26.70;63.80;;;;;;1758472;81;21126;-84
2023/02/17 05:29:51;;;;;;;21.93;15.03;;;26.70;63.70;;;;;;1760253;81;21519;-84
2023/02/17 05:32:23;;;;;;;18.95;16.05;;;26.70;64.20;;;;;;1747010;81;21212;-84
2023/02/17 05:34:54;;;;;;;19.92;15.32;;;26.70;63.80;;;;;;1808944;77;21208;-85
2023/02/17 05:37:25;;;;;;;25.37;15.60;;;26.70;63.80;;;;;;1758163;80;21154;-84
2023/02/17 05:39:58;;;;;;;18.23;14.63;;;26.70;64.00;;;;;;1808058;77;21205;-84
2023/02/17 05:42:29;;;;;;;19.80;14.68;;;26.70;64.40;;;;;;1757791;80;21254;-85
2023/02/17 05:45:00;;;;;;;18.70;14.95;;;26.80;63.90;;;;;;1811350;78;21152;-84
2023/02/17 05:47:34;;;;;;;20.08;15.32;;;26.80;65.30;;;;;;1758260;80;21594;-84
2023/02/17 05:50:05;;;;;;;22.10;15.30;;;26.70;64.20;;;;;;1821086;77;21274;-84
2023/02/17 05:52:36;;;;;;;20.15;14.68;;;26.80;64.50;;;;;;1815202;77;21150;-84
2023/02/17 05:55:08;;;;;;;19.23;13.90;;;26.80;64.20;;;;;;1772798;79;21166;-84
2023/02/17 05:57:39;;;;;;;21.65;14.40;;;26.80;63.20;;;;;;1808127;77;21125;-85
2023/02/17 06:00:12;;;;;;;19.82;15.05;;;26.80;63.90;;;;;;1757501;80;21199;-85
2023/02/17 06:02:43;;;;;;;18.65;14.58;;;26.80;65.00;;;;;;1812708;77;21117;-79
2023/02/17 06:05:14;;;;;;;18.27;14.78;;;26.90;64.10;;;;;;1820386;77;21133;-74
2023/02/17 06:07:46;;;;;;;20.10;14.58;;;26.90;63.80;;;;;;1816280;77;21109;-74
2023/02/17 06:10:17;;;;;;;21.75;14.28;;;27.00;63.90;;;;;;1818077;77;21242;-74
2023/02/17 06:12:48;;;;;;;17.37;14.05;;;27.20;63.90;;;;;;1821113;77;21200;-74
2023/02/17 06:15:20;;;;;;;21.37;14.63;;;27.20;64.50;;;;;;1823065;77;21203;-74
2023/02/17 06:17:51;;;;;;;17.80;14.55;;;27.20;63.40;;;;;;1755253;80;21692;-73
2023/02/17 06:20:23;;;;;;;15.90;13.95;;;27.30;63.00;;;;;;1768712;79;21189;-73
2023/02/17 06:22:54;;;;;;;22.60;14.65;;;27.30;63.10;;;;;;1784409;79;22022;-74
2023/02/17 06:25:25;;;;;;;17.10;13.83;;;27.50;62.60;;;;;;1774486;79;21160;-74
2023/02/17 06:27:56;;;;;;;19.73;14.03;;;27.50;61.80;;;;;;1774399;79;21227;-74
2023/02/17 06:30:27;;;;;;;18.87;14.35;;;27.50;61.40;;;;;;1771578;79;21193;-74
2023/02/17 06:33:00;;;;;;;20.15;14.90;;;27.50;61.50;;;;;;1771696;79;22096;-74
2023/02/17 06:35:32;;;;;;;21.12;14.95;;;27.50;61.60;;;;;;1757398;81;21205;-73
2023/02/17 06:38:03;;;;;;;17.75;14.15;;;27.60;61.40;;;;;;1821955;77;21569;-73
2023/02/17 06:40:54;;;;;;;22.40;15.08;;;27.60;61.80;;;;;;1781035;79;21126;-74
2023/02/17 06:43:27;;;;;;;18.45;13.95;;;27.60;61.70;;;;;;1783087;79;22034;-73
2023/02/17 06:45:59;;;;;;;19.40;13.10;;;27.60;61.60;;;;;;1777262;79;21409;-73
2023/02/17 06:48:34;;;;;;;17.60;13.85;;;27.60;60.80;;;;;;1738392;81;21386;-73
2023/02/17 06:51:06;;;;;;;18.70;13.58;;;27.60;60.50;;;;;;1738986;81;21996;-73
2023/02/17 06:53:41;;;;;;;19.25;12.82;;;27.60;61.50;;;;;;1739390;81;21171;-73
2023/02/17 06:56:12;;;;;;;18.37;14.47;;;27.60;60.80;;;;;;1745166;81;21176;-73
2023/02/17 06:58:43;;;;;;;18.65;14.25;;;27.60;60.90;;;;;;1736408;81;22106;-72
2023/02/17 07:04:08;;;;;;;19.10;12.93;;;27.60;60.80;;;;;;1822172;77;21670;-73
2023/02/17 07:06:41;;;;;;;18.87;13.72;;;27.60;60.60;;;;;;1807473;78;21610;-73
2023/02/17 07:09:13;;;;;;;23.02;13.75;;;27.70;60.30;;;;;;1826957;77;21167;-74
2023/02/17 07:11:44;;;;;;;18.32;12.95;;;27.70;60.10;;;;;;1826139;77;21067;-74
2023/02/17 07:14:15;;;;;;;17.92;13.28;;;27.80;60.40;;;;;;1832742;77;21190;-74
2023/02/17 07:16:47;;;;;;;23.00;14.33;;;27.80;60.30;;;;;;1829820;77;21137;-74
2023/02/17 07:19:19;;;;;;;17.77;13.80;;;27.90;59.50;;;;;;1831535;77;21211;-73
2023/02/17 07:21:53;;;;;;;19.42;13.85;;;27.90;59.90;;;;;;1819146;77;21165;-74
2023/02/17 07:24:24;;;;;;;19.12;13.70;;;28.00;59.30;;;;;;1826999;78;21131;-74
2023/02/17 07:26:59;;;;;;;18.37;13.83;;;28.00;59.00;;;;;;1836971;77;21175;-74
2023/02/17 07:29:30;;;;;;;21.05;14.95;;;28.10;59.70;;;;;;1823999;77;21937;-74
2023/02/17 07:32:02;;;;;;;23.45;15.18;;;28.10;59.10;;;;;;1829208;77;21154;-74
2023/02/17 07:34:37;;;;;;;20.10;14.47;;;28.20;58.80;;;;;;1786722;78;21150;-74
2023/02/17 07:37:09;;;;;;;17.30;13.62;;;28.20;59.30;;;;;;1788735;78;21269;-74
2023/02/17 07:39:40;;;;;;;17.77;13.08;;;28.10;58.70;;;;;;1768747;80;21884;-73
2023/02/17 07:42:11;;;;;;;20.08;13.28;;;28.10;59.30;;;;;;1773335;80;21287;-72
2023/02/17 07:44:43;;;;;;;17.55;14.35;;;28.10;59.40;;;;;;1790881;78;21202;-72
2023/02/17 07:47:20;;;;;;;19.52;14.43;;;28.10;59.30;;;;;;1776210;78;22016;-72
2023/02/17 07:49:52;;;;;;;17.85;13.72;;;28.00;58.80;;;;;;1766411;79;21738;-72
2023/02/17 07:52:23;;;;;;;15.00;13.40;;;28.00;58.90;;;;;;1751753;80;21704;-72
2023/02/17 07:55:12;;;;;;;20.35;13.70;;;28.00;58.70;;;;;;1766678;79;21175;-73
2023/02/17 07:57:43;;;;;;;16.27;13.93;;;27.90;58.50;;;;;;1775333;79;21835;-73
2023/02/17 08:00:18;;;;;;;17.67;13.50;;;27.90;58.60;;;;;;1816173;76;21161;-73
2023/02/17 08:02:55;;;;;;;16.87;13.15;;;27.90;58.40;;;;;;1815996;76;21240;-74
2023/02/17 08:05:28;;;;;;;17.57;13.63;;;27.90;58.20;;;;;;1811800;77;21244;-75
2023/02/17 08:13:41;;;;;;;18.25;13.53;;;27.90;59.10;;;;;;1777461;79;21160;-74
2023/02/17 08:16:16;;;;;;;16.12;12.93;;;27.90;58.60;;;;;;1808703;76;21119;-71
2023/02/17 08:18:46;;;;;;;16.15;12.98;;;27.90;58.90;;;;;;1794088;78;21734;-73
2023/02/17 08:21:17;;;;;;;16.27;12.98;;;27.80;59.40;;;;;;1776330;78;21182;-75
2023/02/17 08:23:50;;;;;;;15.60;13.05;;;27.80;58.40;;;;;;1779011;79;21215;-74
2023/02/17 08:26:24;;;;;;;16.20;12.78;;;27.80;58.40;;;;;;1771220;79;21237;-74
2023/02/17 08:28:56;;;;;;;19.65;13.50;;;27.80;58.70;;;;;;1815058;76;21953;-72
2023/02/17 08:31:34;;;;;;;20.08;13.98;;;27.70;58.50;;;;;;1801618;76;21419;-74
2023/02/17 08:34:08;;;;;;;18.00;13.80;;;27.70;58.30;;;;;;1810784;76;21510;-74
2023/02/17 08:36:40;;;;;;;18.60;13.62;;;27.70;58.50;;;;;;1785347;78;21218;-74
2023/02/17 08:39:17;;;;;;;18.80;13.43;;;27.70;58.80;;;;;;1775478;79;21219;-75
2023/02/17 08:41:49;;;;;;;21.68;13.55;;;27.70;58.60;;;;;;1818318;78;21094;-76
2023/02/17 08:44:21;;;;;;;18.65;13.53;;;27.70;58.80;;;;;;1819844;76;21145;-74
2023/02/17 08:46:53;;;;;;;19.95;13.90;;;27.70;58.60;;;;;;1810549;77;22089;-75
2023/02/17 08:49:28;;;;;;;16.52;12.78;;;27.70;58.20;;;;;;1812990;76;21173;-75
2023/02/17 08:51:59;;;;;;;18.62;12.68;;;27.80;58.60;;;;;;1810668;77;21601;-74
2023/02/17 08:54:31;;;;;;;16.02;12.40;;;27.80;58.30;;;;;;1814185;76;21240;-73
2023/02/17 08:57:02;;;;;;;19.32;12.93;;;27.80;58.30;;;;;;1810781;77;21616;-73
2023/02/17 08:59:33;;;;;;;17.65;12.25;;;27.80;57.60;;;;;;1817344;77;21154;-75
2023/02/17 09:02:05;;;;;;;18.12;13.13;;;27.80;57.80;;;;;;1816053;77;21143;-73
2023/02/17 09:04:36;;;;;;;18.60;12.37;;;27.80;57.90;;;;;;1808404;76;21260;-75
2023/02/17 09:07:10;;;;;;;15.15;12.35;;;27.80;57.40;;;;;;1781452;78;21221;-74
2023/02/17 09:09:42;;;;;;;18.00;12.82;;;27.70;57.70;;;;;;1815678;77;21226;-77
2023/02/17 09:12:13;;;;;;;17.25;12.23;;;27.70;57.70;;;;;;1819093;77;21588;-76
2023/02/17 09:14:45;;;;;;;17.17;12.65;;;27.70;57.50;;;;;;1807462;76;21147;-74
2023/02/17 09:17:19;;;;;;;17.17;12.50;;;27.70;58.00;;;;;;1819028;79;21100;-75
2023/02/17 09:19:53;;;;;;;16.45;12.20;;;27.70;58.10;;;;;;1819896;79;21157;-78
2023/02/17 09:22:24;;;;;;;16.30;12.43;;;27.70;58.10;;;;;;1812399;76;21266;-77
2023/02/17 09:24:57;;;;;;;17.20;11.38;;;27.70;57.50;;;;;;1819774;77;21551;-76
2023/02/17 09:27:48;;;;;;;14.00;11.57;;;27.60;57.50;;;;;;1815752;76;21092;-78
2023/02/17 09:30:23;;;;;;;17.55;12.70;;;27.60;57.80;;;;;;1788149;77;21136;-77
2023/02/17 09:32:57;;;;;;;23.80;12.88;;;27.60;57.90;;;;;;1809943;77;21171;-75
2023/02/17 09:35:33;;;;;;;16.25;12.75;;;27.60;57.90;;;;;;1812559;77;21195;-74
2023/02/17 09:38:04;;;;;;;16.75;12.30;;;27.60;57.70;;;;;;1813037;76;21208;-75
2023/02/17 09:40:49;;;;;;;19.25;12.33;;;27.70;57.90;;;;;;1811523;76;21174;-74
2023/02/17 09:43:27;;;;;;;14.63;12.20;;;27.60;58.20;;;;;;1813955;76;21245;-78
2023/02/17 09:46:00;;;;;;;17.90;12.90;;;27.60;58.40;;;;;;1818706;77;21207;-76
2023/02/17 09:48:33;;;;;;;17.07;12.90;;;27.60;58.40;;;;;;1849064;76;21166;-76
2023/02/17 09:51:14;;;;;;;18.85;13.48;;;27.60;58.40;;;;;;1838821;77;21223;-75
2023/02/17 09:54:09;;;;;;;18.12;12.58;;;27.60;58.50;;;;;;1832392;76;21097;-76
2023/02/17 09:56:44;;;;;;;19.73;13.40;;;27.60;58.30;;;;;;1834553;77;21696;-77
2023/02/17 09:59:39;;;;;;;17.65;12.65;;;27.50;58.60;;;;;;1827340;77;21163;-77
2023/02/17 10:02:46;;;;;;;16.90;12.78;;;27.50;58.60;;;;;;1811362;79;21108;-76
2023/02/17 10:05:28;;;;;;;15.88;12.13;;;27.50;58.70;;;;;;1833175;77;21206;-77
2023/02/17 10:08:15;;;;;;;;;;;;;;;;;;;;;
2023/02/17 10:11:04;;;;;;;17.30;12.85;;;27.50;58.80;;;;;;1779617;79;21225;-75
2023/02/17 10:13:39;;;;;;;19.50;12.98;;;27.50;59.10;;;;;;1805484;78;21245;-75
2023/02/17 10:16:29;;;;;;;18.23;13.35;;;27.40;59.20;;;;;;1808398;78;21202;-75
2023/02/17 10:19:17;;;;;;;17.48;13.25;;;27.40;59.40;;;;;;1781317;79;21123;-76
2023/02/17 10:22:04;;;;;;;18.60;12.18;;;27.40;59.40;;;;;;1822248;77;21098;-77
2023/02/17 10:24:36;;;;;;;17.77;13.00;;;27.30;59.50;;;;;;1846745;76;21866;-76
2023/02/17 10:27:31;;;;;;;24.27;13.40;;;27.30;59.60;;;;;;1832742;77;21901;-74
2023/02/17 10:30:10;;;;;;;17.32;12.90;;;27.30;59.90;;;;;;1832996;77;21219;-74
2023/02/17 10:32:59;;;;;;;18.00;13.43;;;27.40;60.00;;;;;;1830440;77;21213;-73
2023/02/17 10:35:52;;;;;;;16.23;12.95;;;27.30;59.90;;;;;;1820544;77;21197;-73
2023/02/17 10:38:44;;;;;;;19.98;15.75;;;27.30;60.00;;;;;;1837357;77;21303;-74
2023/02/17 10:41:17;;;;;;;23.70;13.68;;;27.30;59.50;;;;;;1835255;77;21170;-75
2023/02/17 10:43:50;;;;;;;20.90;14.10;;;27.30;60.20;;;;;;1833114;77;21654;-75
2023/02/17 10:46:24;;;;;;;19.42;13.05;;;27.30;60.40;;;;;;1837310;77;21161;-73
2023/02/17 10:48:57;;;;;;;18.35;13.68;;;27.30;60.60;;;;;;1844946;76;21335;-74
2023/02/17 10:51:30;;;;;;;18.02;14.05;;;27.20;60.50;;;;;;1855139;76;21171;-74
2023/02/17 10:54:07;;;;;;;19.02;13.38;;;27.20;60.40;;;;;;1847287;76;21221;-75
2023/02/17 10:56:43;;;;;;;17.90;13.53;;;27.20;60.60;;;;;;1856374;76;21595;-73
2023/02/17 10:59:32;;;;;;;17.10;13.98;;;27.20;60.60;;;;;;1841750;76;21477;-74
2023/02/17 11:02:24;;;;;;;19.60;13.60;;;27.10;60.50;;;;;;1859772;76;21206;-73
2023/02/17 11:04:55;;;;;;;21.95;13.98;;;27.10;60.50;;;;;;1857023;76;21174;-72
2023/02/17 11:07:42;;;;;;;20.70;14.20;;;27.10;60.80;;;;;;1856382;76;21719;-73
2023/02/17 11:10:27;;;;;;;21.27;15.25;;;27.10;60.90;;;;;;1844114;76;21108;-75
2023/02/17 11:13:02;;;;;;;19.17;14.23;;;27.10;60.90;;;;;;1855112;76;21183;-74
2023/02/17 11:15:38;;;;;;;19.57;14.38;;;27.10;61.20;;;;;;1841517;76;21199;-73
2023/02/17 11:18:18;;;;;;;20.60;14.70;;;27.10;61.20;;;;;;1856293;76;22017;-84
2023/02/17 11:20:54;;;;;;;22.00;15.68;;;27.00;61.10;;;;;;1857076;76;21170;-84
2023/02/17 11:23:28;;;;;;;26.42;16.27;;;27.10;61.30;;;;;;1847386;76;21143;-86
2023/02/17 11:26:09;;;;;;;27.13;16.60;;;27.10;61.30;;;;;;1860451;76;21191;-84
2023/02/17 11:28:40;;;;;;;23.52;15.95;;;27.00;61.20;;;;;;1841009;77;21636;-84
2023/02/17 11:31:27;;;;;;;20.37;14.73;;;27.00;61.50;;;;;;1849891;77;21525;-84
2023/02/17 11:34:18;;;;;;;21.75;16.35;;;27.00;62.00;;;;;;1831297;78;21179;-86
2023/02/17 11:37:01;;;;;;;24.55;16.05;;;27.00;62.10;;;;;;1826501;77;21169;-86
2023/02/17 11:39:40;;;;;;;23.22;16.20;;;27.00;62.30;;;;;;1845968;76;21266;-85
2023/02/17 11:42:28;;;;;;;23.83;16.37;;;27.00;62.60;;;;;;1818735;79;21160;-85
2023/02/17 11:45:00;;;;;;;21.25;15.40;;;26.90;62.60;;;;;;1882527;76;21567;-86
2023/02/17 11:47:43;;;;;;;22.05;15.28;;;26.90;62.50;;;;;;1890968;76;21125;-85
2023/02/17 11:50:19;;;;;;;23.73;15.30;;;26.90;62.70;;;;;;1809942;76;21070;-84
2023/02/17 11:53:00;;;;;;;20.00;15.00;;;26.90;62.60;;;;;;1859746;76;21646;-84
2023/02/17 11:55:36;;;;;;;25.43;16.48;;;26.90;62.50;;;;;;1864923;77;21153;-84
2023/02/17 11:58:22;;;;;;;24.55;16.55;;;26.90;62.60;;;;;;1834592;77;21212;-86
2023/02/17 12:01:07;;;;;;;28.87;17.30;;;26.90;62.70;;;;;;1817255;78;21969;-85
2023/02/17 12:03:52;;;;;;;30.70;16.60;;;26.90;62.80;;;;;;1867303;76;21144;-86
2023/02/17 12:06:34;;;;;;;22.82;17.17;;;26.90;63.00;;;;;;1809616;78;21219;-85
2023/02/17 12:09:14;;;;;;;25.23;17.45;;;26.80;63.00;;;;;;1808663;79;21438;-84
2023/02/17 12:11:53;;;;;;;25.30;17.12;;;26.80;63.00;;;;;;1832485;77;21191;-85
2023/02/17 12:14:44;;;;;;;23.57;17.00;;;26.80;62.70;;;;;;1851085;76;21126;-85
2023/02/17 12:17:39;;;;;;;22.77;15.45;;;26.80;62.60;;;;;;1838153;78;21168;-84
2023/02/17 12:20:18;;;;;;;21.45;15.55;;;26.80;62.40;;;;;;1808592;78;21152;-84
2023/02/17 12:22:57;;;;;;;20.02;14.55;;;26.80;62.70;;;;;;1838692;78;21240;-85
2023/02/17 12:25:45;;;;;;;26.07;16.35;;;26.80;62.50;;;;;;1837068;78;21133;-86
2023/02/17 12:28:31;;;;;;;22.90;15.98;;;26.80;62.50;;;;;;1840427;77;21521;-85
2023/02/17 12:31:23;;;;;;;26.00;16.55;;;26.80;62.60;;;;;;1833340;77;21149;-85
2023/02/17 12:34:08;;;;;;;22.22;16.48;;;26.80;62.70;;;;;;1752652;82;21570;-86
2023/02/17 12:36:41;;;;;;;20.75;16.27;;;26.80;62.80;;;;;;1826722;77;21879;-86
2023/02/17 12:39:26;;;;;;;21.45;15.68;;;26.80;63.00;;;;;;1820334;78;21706;-86
2023/02/17 12:42:11;;;;;;;26.05;16.35;;;26.80;63.10;;;;;;1756200;82;21615;-84
2023/02/17 12:44:46;;;;;;;25.72;16.02;;;26.80;63.20;;;;;;1821973;79;21576;-84
2023/02/17 12:47:27;;;;;;;23.65;15.85;;;26.80;63.20;;;;;;1848275;76;21074;-85
2023/02/17 12:50:03;;;;;;;24.60;16.57;;;26.80;63.30;;;;;;1836595;78;21153;-85
2023/02/17 12:52:36;;;;;;;25.52;17.75;;;26.80;63.40;;;;;;1822954;78;21664;-85
2023/02/17 12:55:10;;;;;;;23.57;18.20;;;26.80;63.60;;;;;;1828839;78;21141;-87
2023/02/17 12:58:02;;;;;;;26.23;17.50;;;26.80;63.70;;;;;;1827053;76;21505;-85
2023/02/17 13:00:43;;;;;;;24.65;17.82;;;26.80;63.80;;;;;;1837726;78;21102;-84
2023/02/17 13:03:14;;;;;;;27.07;17.65;;;26.70;63.90;;;;;;1830159;77;21213;-85
2023/02/17 13:05:48;;;;;;;30.20;18.32;;;26.70;64.00;;;;;;1821385;78;21198;-84
2023/02/17 13:08:43;;;;;;;25.77;18.45;;;26.70;64.20;;;;;;1834690;78;21584;-85
2023/02/17 13:11:16;;;;;;;32.65;18.23;;;26.70;64.20;;;;;;1829784;78;21581;-85
2023/02/17 13:13:47;;;;;;;29.32;17.73;;;26.70;64.20;;;;;;1817295;78;21212;-87
2023/02/17 13:16:18;;;;;;;26.73;17.67;;;26.70;64.10;;;;;;1814932;78;21176;-85
2023/02/17 13:18:51;;;;;;;24.27;17.57;;;26.70;64.10;;;;;;1820752;78;21203;-85
2023/02/17 13:21:26;;;;;;;35.17;18.75;;;26.70;64.10;;;;;;1815503;78;21230;-87
2023/02/17 13:24:18;;;;;;;28.35;17.00;;;26.70;64.20;;;;;;1816635;78;21903;-85
2023/02/17 13:26:49;;;;;;;24.98;17.85;;;26.70;64.20;;;;;;1818734;78;21757;-85